createdAt,value
2023-05-03T00:00:37.129Z,6.50
2023-05-03T00:03:06.928Z,6.40
2023-05-03T00:05:35.721Z,6.40
2023-05-03T00:08:04.688Z,6.40
2023-05-03T00:10:34.648Z,6.40
2023-05-03T00:13:03.147Z,6.40
2023-05-03T00:15:31.783Z,6.30
2023-05-03T00:18:00.365Z,6.30
2023-05-03T00:20:29.033Z,6.20
2023-05-03T00:22:57.531Z,6.20
2023-05-03T00:25:26.125Z,6.30
2023-05-03T00:27:55.973Z,6.10
2023-05-03T00:30:26.166Z,6.20
2023-05-03T00:32:54.872Z,6.10
2023-05-03T00:35:23.581Z,6.10
2023-05-03T00:37:52.188Z,6.10
2023-05-03T00:40:20.739Z,6.00
2023-05-03T00:42:49.293Z,6.00
2023-05-03T00:45:20.057Z,5.90
2023-05-03T00:47:48.803Z,5.90
2023-05-03T00:50:17.561Z,5.90
2023-05-03T00:52:46.964Z,5.80
2023-05-03T00:55:16.574Z,5.80
2023-05-03T00:57:45.157Z,5.70
2023-05-03T01:00:15.297Z,5.70
2023-05-03T01:02:45.299Z,5.60
2023-05-03T01:05:14.141Z,5.60
2023-05-03T01:07:53.072Z,5.60
2023-05-03T01:10:29.513Z,5.60
2023-05-03T01:13:08.784Z,5.60
2023-05-03T01:15:46.855Z,5.60
2023-05-03T01:18:22.048Z,5.50
2023-05-03T01:20:51.523Z,5.50
2023-05-03T01:23:31.265Z,5.50
2023-05-03T01:26:01.277Z,5.50
2023-05-03T01:28:29.880Z,5.40
2023-05-03T01:31:00.219Z,5.50
2023-05-03T01:33:38.113Z,5.50
2023-05-03T01:36:14.687Z,5.40
2023-05-03T01:38:44.286Z,5.40
2023-05-03T01:41:18.153Z,5.40
2023-05-03T01:43:49.828Z,5.20
2023-05-03T01:46:18.445Z,5.40
2023-05-03T01:48:48.317Z,5.30
2023-05-03T01:51:16.846Z,5.30
2023-05-03T01:53:45.864Z,5.40
2023-05-03T01:56:15.975Z,5.20
2023-05-03T01:58:44.530Z,5.20
2023-05-03T02:01:13.281Z,5.20
2023-05-03T02:03:41.876Z,5.20
2023-05-03T02:06:11.646Z,5.20
2023-05-03T02:08:40.185Z,5.20
2023-05-03T02:11:08.801Z,5.20
2023-05-03T02:13:39.710Z,5.20
2023-05-03T02:16:09.622Z,5.20
2023-05-03T02:18:38.259Z,5.10
2023-05-03T02:21:07.835Z,5.10
2023-05-03T02:23:36.643Z,5.00
2023-05-03T02:26:05.530Z,5.00
2023-05-03T02:28:35.215Z,5.00
2023-05-03T02:31:06.990Z,4.90
2023-05-03T02:33:35.682Z,4.90
2023-05-03T02:36:04.360Z,4.80
2023-05-03T02:38:32.916Z,4.90
2023-05-03T02:41:01.390Z,4.80
2023-05-03T02:43:29.986Z,4.80
2023-05-03T02:45:59.730Z,4.70
2023-05-03T02:48:29.791Z,4.70
2023-05-03T02:50:58.476Z,4.70
2023-05-03T02:53:27.040Z,4.60
2023-05-03T02:55:59.568Z,4.60
2023-05-03T02:58:28.174Z,4.50
2023-05-03T03:00:57.407Z,4.50
2023-05-03T03:03:30.517Z,4.50
2023-05-03T03:05:59.324Z,4.40
2023-05-03T03:08:27.883Z,4.50
2023-05-03T03:11:00.757Z,4.40
2023-05-03T03:13:29.398Z,4.40
2023-05-03T03:15:57.985Z,4.40
2023-05-03T03:18:26.643Z,4.30
2023-05-03T03:20:56.509Z,4.30
2023-05-03T03:23:25.349Z,4.30
2023-05-03T03:25:54.194Z,4.30
2023-05-03T03:28:22.800Z,4.20
2023-05-03T03:30:51.841Z,4.20
2023-05-03T03:33:25.526Z,4.20
2023-05-03T03:36:00.009Z,4.10
2023-05-03T03:38:33.260Z,4.10
2023-05-03T03:41:06.047Z,4.10
2023-05-03T03:43:34.835Z,4.10
2023-05-03T03:46:06.808Z,4.10
2023-05-03T03:48:35.843Z,4.10
2023-05-03T03:51:05.766Z,4.10
2023-05-03T03:53:40.583Z,4.00
2023-05-03T03:56:09.635Z,4.00
2023-05-03T03:58:38.244Z,4.00
2023-05-03T04:01:09.548Z,4.00
2023-05-03T04:03:38.870Z,4.00
2023-05-03T04:06:09.132Z,4.00
2023-05-03T04:08:38.377Z,4.00
2023-05-03T04:11:12.387Z,3.90
2023-05-03T04:13:46.334Z,3.90
2023-05-03T04:16:15.389Z,3.90
2023-05-03T04:18:44.159Z,4.00
2023-05-03T04:21:14.104Z,3.90
2023-05-03T04:23:44.028Z,3.90
2023-05-03T04:26:27.467Z,3.90
2023-05-03T04:29:00.829Z,3.90
2023-05-03T04:31:30.070Z,3.90
2023-05-03T04:33:59.610Z,3.90
2023-05-03T04:36:31.303Z,3.90
2023-05-03T04:39:01.323Z,3.90
2023-05-03T04:41:30.156Z,3.90
2023-05-03T04:43:58.914Z,3.90
2023-05-03T04:46:27.702Z,3.90
2023-05-03T04:48:57.605Z,4.00
2023-05-03T04:51:28.342Z,4.00
2023-05-03T04:54:00.049Z,4.10
2023-05-03T04:56:29.570Z,4.00
2023-05-03T04:59:07.538Z,4.00
2023-05-03T05:01:36.688Z,4.00
2023-05-03T05:04:07.284Z,4.10
2023-05-03T05:06:42.687Z,4.10
2023-05-03T05:09:23.747Z,4.10
2023-05-03T05:11:57.305Z,4.10
2023-05-03T05:14:28.854Z,4.20
2023-05-03T05:16:58.352Z,4.30
2023-05-03T05:19:27.986Z,4.30
2023-05-03T05:21:57.332Z,4.40
2023-05-03T05:24:32.902Z,4.50
2023-05-03T05:27:01.803Z,4.70
2023-05-03T05:29:31.755Z,4.80
2023-05-03T05:32:03.254Z,4.90
2023-05-03T05:34:42.211Z,5.00
2023-05-03T05:37:13.989Z,5.10
2023-05-03T05:39:44.297Z,5.30
2023-05-03T05:42:13.669Z,5.50
2023-05-03T05:44:42.972Z,5.70
2023-05-03T05:47:12.232Z,5.80
2023-05-03T05:49:45.116Z,6.00
2023-05-03T05:52:14.251Z,6.20
2023-05-03T05:54:44.629Z,6.40
2023-05-03T05:57:13.865Z,6.50
2023-05-03T05:59:43.003Z,6.70
2023-05-03T06:02:17.849Z,6.90
2023-05-03T06:04:48.711Z,7.10
2023-05-03T06:07:17.668Z,7.30
2023-05-03T06:09:48.107Z,7.40
2023-05-03T06:12:16.801Z,7.60
2023-05-03T06:15:01.109Z,7.80
2023-05-03T06:17:32.600Z,7.90
2023-05-03T06:20:01.955Z,8.00
2023-05-03T06:22:31.020Z,8.20
2023-05-03T06:25:01.579Z,8.30
2023-05-03T06:27:30.258Z,8.40
2023-05-03T06:30:00.396Z,8.50
2023-05-03T06:32:30.491Z,8.60
2023-05-03T06:34:59.789Z,8.60
2023-05-03T06:37:28.617Z,8.70
2023-05-03T06:39:57.175Z,8.80
2023-05-03T06:42:27.759Z,8.90
2023-05-03T06:45:09.311Z,8.90
2023-05-03T06:47:40.320Z,9.00
2023-05-03T06:50:10.925Z,9.00
2023-05-03T06:52:39.886Z,9.10
2023-05-03T06:55:09.395Z,9.10
2023-05-03T06:57:42.397Z,9.20
2023-05-03T07:00:12.097Z,9.20
2023-05-03T07:02:40.721Z,9.30
2023-05-03T07:05:10.266Z,9.30
2023-05-03T07:07:38.855Z,9.30
2023-05-03T07:10:08.209Z,9.40
2023-05-03T07:12:36.666Z,9.50
2023-05-03T07:15:07.366Z,9.50
2023-05-03T07:17:36.104Z,9.60
2023-05-03T07:20:05.358Z,9.60
2023-05-03T07:22:34.216Z,9.70
2023-05-03T07:25:03.083Z,9.70
2023-05-03T07:27:31.606Z,9.80
2023-05-03T07:30:00.266Z,9.90
2023-05-03T07:32:30.341Z,9.90
2023-05-03T07:34:58.969Z,9.90
2023-05-03T07:37:28.126Z,10.00
2023-05-03T07:39:56.669Z,10.00
2023-05-03T07:42:25.284Z,10.00
2023-05-03T07:44:55.373Z,10.10
2023-05-03T07:47:24.261Z,10.10
2023-05-03T07:49:54.208Z,10.10
2023-05-03T07:52:22.776Z,10.20
2023-05-03T07:54:51.487Z,10.30
2023-05-03T07:57:20.147Z,10.30
2023-05-03T07:59:48.705Z,10.40
2023-05-03T08:02:17.456Z,10.40
2023-05-03T08:04:46.405Z,10.50
2023-05-03T08:07:17.251Z,10.50
2023-05-03T08:09:45.942Z,10.50
2023-05-03T08:12:14.506Z,10.60
2023-05-03T08:14:43.072Z,10.60
2023-05-03T08:17:11.786Z,10.70
2023-05-03T08:19:40.883Z,10.80
2023-05-03T08:22:11.010Z,10.80
2023-05-03T08:24:42.393Z,10.90
2023-05-03T08:27:12.532Z,11.00
2023-05-03T08:29:41.206Z,11.10
2023-05-03T08:32:10.719Z,11.10
2023-05-03T08:34:39.257Z,11.20
2023-05-03T08:37:08.000Z,11.30
2023-05-03T08:39:36.600Z,11.40
2023-05-03T08:42:09.924Z,11.40
2023-05-03T08:44:43.576Z,11.40
2023-05-03T08:47:13.135Z,11.50
2023-05-03T08:49:43.607Z,11.50
2023-05-03T08:52:13.356Z,11.60
2023-05-03T08:54:42.017Z,11.70
2023-05-03T08:57:15.631Z,11.70
2023-05-03T08:59:50.897Z,11.80
2023-05-03T09:02:19.532Z,11.90
2023-05-03T09:04:48.163Z,12.00
2023-05-03T09:07:17.155Z,12.00
2023-05-03T09:09:47.326Z,12.10
2023-05-03T09:12:35.725Z,12.20
2023-05-03T09:15:06.519Z,12.30
2023-05-03T09:17:35.401Z,12.40
2023-05-03T09:20:04.229Z,12.50
2023-05-03T09:22:34.830Z,12.50
2023-05-03T09:25:04.141Z,12.60
2023-05-03T09:27:34.081Z,12.60
2023-05-03T09:30:18.554Z,12.70
2023-05-03T09:32:50.367Z,12.70
2023-05-03T09:35:19.078Z,12.80
2023-05-03T09:37:47.749Z,12.80
2023-05-03T09:40:18.304Z,12.80
2023-05-03T09:43:14.413Z,12.90
2023-05-03T09:45:43.084Z,13.00
2023-05-03T09:48:12.783Z,13.10
2023-05-03T09:50:42.046Z,13.10
2023-05-03T09:53:10.963Z,13.20
2023-05-03T09:55:40.593Z,13.30
2023-05-03T09:58:09.364Z,13.40
2023-05-03T10:00:40.724Z,13.30
2023-05-03T10:03:12.270Z,13.40
2023-05-03T10:05:47.110Z,13.40
2023-05-03T10:08:27.349Z,13.50
2023-05-03T10:10:55.962Z,13.50
2023-05-03T10:13:25.424Z,13.60
2023-05-03T10:15:59.684Z,13.60
2023-05-03T10:18:30.806Z,13.70
2023-05-03T10:21:05.226Z,13.70
2023-05-03T10:23:33.763Z,13.80
2023-05-03T10:26:17.179Z,13.90
2023-05-03T10:28:46.667Z,14.00
2023-05-03T10:31:55.242Z,14.00
2023-05-03T10:34:26.375Z,14.00
2023-05-03T10:36:54.961Z,14.20
2023-05-03T10:39:24.145Z,14.30
2023-05-03T10:42:00.037Z,14.30
2023-05-03T10:44:30.674Z,14.40
2023-05-03T10:47:10.383Z,14.30
2023-05-03T10:49:40.427Z,14.40
2023-05-03T10:52:42.416Z,14.50
2023-05-03T10:55:12.645Z,14.60
2023-05-03T10:57:43.541Z,14.60
2023-05-03T11:00:16.507Z,14.60
2023-05-03T11:03:05.421Z,14.60
2023-05-03T11:05:35.579Z,14.70
2023-05-03T11:08:14.119Z,14.70
2023-05-03T11:10:42.862Z,14.80
2023-05-03T11:13:11.846Z,14.90
2023-05-03T11:15:41.154Z,14.90
2023-05-03T11:18:11.420Z,14.90
2023-05-03T11:20:41.492Z,14.90
2023-05-03T11:23:10.126Z,15.00
2023-05-03T11:25:39.301Z,15.00
2023-05-03T11:28:07.901Z,15.10
2023-05-03T11:30:37.895Z,15.20
2023-05-03T11:33:07.503Z,15.20
2023-05-03T11:35:36.647Z,15.40
2023-05-03T11:38:07.020Z,15.40
2023-05-03T11:40:36.747Z,15.40
2023-05-03T11:43:07.024Z,15.50
2023-05-03T11:45:44.112Z,15.60
2023-05-03T11:48:14.603Z,15.70
2023-05-03T11:50:48.163Z,15.70
2023-05-03T11:53:19.297Z,15.80
2023-05-03T11:55:49.332Z,15.90
2023-05-03T11:58:20.420Z,15.90
2023-05-03T12:00:51.496Z,16.00
2023-05-03T12:03:20.884Z,16.10
2023-05-03T12:05:52.507Z,16.10
2023-05-03T12:08:25.161Z,16.20
2023-05-03T12:10:58.358Z,16.20
2023-05-03T12:13:29.949Z,16.30
2023-05-03T12:16:10.864Z,16.40
2023-05-03T12:18:56.213Z,16.40
2023-05-03T12:24:01.488Z,16.60
2023-05-03T12:26:30.355Z,16.50
2023-05-03T12:29:00.854Z,16.60
2023-05-03T12:31:32.826Z,16.60
2023-05-03T12:34:28.707Z,16.60
2023-05-03T12:36:54.152Z,16.70
2023-05-03T12:39:27.337Z,16.70
2023-05-03T12:42:07.153Z,16.80
2023-05-03T12:44:36.766Z,16.90
2023-05-03T12:47:09.559Z,17.00
2023-05-03T12:49:39.880Z,17.00
2023-05-03T12:54:42.416Z,17.10
2023-05-03T12:57:15.416Z,17.20
2023-05-03T12:59:52.308Z,17.30
2023-05-03T13:04:59.524Z,17.40
2023-05-03T13:07:32.328Z,17.40
2023-05-03T13:12:39.643Z,17.50
2023-05-03T13:15:10.126Z,17.50
2023-05-03T13:17:38.781Z,17.60
2023-05-03T13:20:10.320Z,17.60
2023-05-03T13:22:39.166Z,17.60
2023-05-03T13:25:09.747Z,17.60
2023-05-03T13:27:38.283Z,17.70
2023-05-03T13:30:08.755Z,17.70
2023-05-03T13:32:37.369Z,17.70
2023-05-03T13:35:07.476Z,17.80
2023-05-03T13:37:36.305Z,17.80
2023-05-03T13:40:05.693Z,17.80
2023-05-03T13:42:36.433Z,17.90
2023-05-03T13:45:05.725Z,18.00
2023-05-03T13:48:05.105Z,17.90
2023-05-03T13:50:22.793Z,17.90
2023-05-03T13:52:51.300Z,17.90
2023-05-03T13:55:20.111Z,17.90
2023-05-03T13:57:49.985Z,18.00
2023-05-03T14:00:20.717Z,18.00
2023-05-03T14:02:49.507Z,18.10
2023-05-03T14:07:48.188Z,18.10
2023-05-03T14:10:16.866Z,18.10
2023-05-03T14:12:45.756Z,18.10
2023-05-03T14:15:15.932Z,18.10
2023-05-03T14:17:47.507Z,18.10
2023-05-03T14:20:17.262Z,18.20
2023-05-03T14:22:46.292Z,18.10
2023-05-03T14:25:14.821Z,18.10
2023-05-03T14:27:43.921Z,18.10
2023-05-03T14:30:13.397Z,18.10
2023-05-03T14:32:43.310Z,18.20
2023-05-03T14:35:12.462Z,18.20
2023-05-03T14:37:41.126Z,18.30
2023-05-03T14:40:10.890Z,18.30
2023-05-03T14:42:39.481Z,18.40
2023-05-03T14:45:11.005Z,18.30
2023-05-03T14:47:41.096Z,18.30
2023-05-03T14:50:11.847Z,18.30
2023-05-03T14:52:40.467Z,18.30
2023-05-03T14:55:09.908Z,18.30
2023-05-03T14:57:39.511Z,18.30
2023-05-03T15:00:14.231Z,18.30
2023-05-03T15:02:43.603Z,18.20
2023-05-03T15:05:13.850Z,18.30
2023-05-03T15:07:42.435Z,18.30
2023-05-03T15:10:11.432Z,18.20
2023-05-03T15:12:40.427Z,18.20
2023-05-03T15:15:12.070Z,18.20
2023-05-03T15:17:40.663Z,18.20
2023-05-03T15:20:13.807Z,18.20
2023-05-03T15:22:43.758Z,18.20
2023-05-03T15:25:12.355Z,18.20
2023-05-03T15:27:40.909Z,18.20
2023-05-03T15:30:12.130Z,18.20
2023-05-03T15:32:40.904Z,18.20
2023-05-03T15:35:10.094Z,18.30
2023-05-03T15:37:39.051Z,18.30
2023-05-03T15:40:10.929Z,18.30
2023-05-03T15:42:39.556Z,18.30
2023-05-03T15:45:09.834Z,18.20
2023-05-03T15:47:38.618Z,18.30
2023-05-03T15:50:08.775Z,18.30
2023-05-03T15:52:37.691Z,18.30
2023-05-03T15:55:09.479Z,18.30
2023-05-03T15:57:38.117Z,18.30
2023-05-03T16:00:15.068Z,18.30
2023-05-03T16:02:43.932Z,18.30
2023-05-03T16:05:12.641Z,18.30
2023-05-03T16:07:41.241Z,18.30
2023-05-03T16:10:11.998Z,18.30
2023-05-03T16:12:40.879Z,18.30
2023-05-03T16:15:12.682Z,18.30
2023-05-03T16:17:41.203Z,18.30
2023-05-03T16:20:11.599Z,18.40
2023-05-03T16:22:43.919Z,18.30
2023-05-03T16:25:14.979Z,18.40
2023-05-03T16:27:43.549Z,18.40
2023-05-03T16:30:12.551Z,18.50
2023-05-03T16:32:41.146Z,18.40
2023-05-03T16:35:10.059Z,18.50
2023-05-03T16:37:38.700Z,18.30
2023-05-03T16:40:11.175Z,18.40
2023-05-03T16:42:42.371Z,18.40
2023-05-03T16:45:11.485Z,18.40
2023-05-03T16:47:40.216Z,18.40
2023-05-03T16:50:10.227Z,18.30
2023-05-03T16:52:43.710Z,18.30
2023-05-03T16:55:13.447Z,18.40
2023-05-03T16:57:43.419Z,18.30
2023-05-03T17:00:13.194Z,18.30
2023-05-03T17:02:42.437Z,18.30
2023-05-03T17:05:12.944Z,18.20
2023-05-03T17:07:42.086Z,18.20
2023-05-03T17:10:11.305Z,18.20
2023-05-03T17:12:39.911Z,18.30
2023-05-03T17:15:11.299Z,18.30
2023-05-03T17:17:40.467Z,18.30
2023-05-03T17:20:10.982Z,18.20
2023-05-03T17:22:39.641Z,18.20
2023-05-03T17:25:09.670Z,18.10
2023-05-03T17:27:38.349Z,18.10
2023-05-03T17:30:10.575Z,18.00
2023-05-03T17:32:39.320Z,18.00
2023-05-03T17:35:10.926Z,18.00
2023-05-03T17:37:39.634Z,17.90
2023-05-03T17:40:09.182Z,17.90
2023-05-03T17:42:37.820Z,17.90
2023-05-03T17:45:08.163Z,17.90
2023-05-03T17:47:38.176Z,17.80
2023-05-03T17:50:07.932Z,17.80
2023-05-03T17:52:36.643Z,17.80
2023-05-03T17:55:06.520Z,17.80
2023-05-03T17:57:36.875Z,17.80
2023-05-03T18:00:06.958Z,17.70
2023-05-03T18:02:35.955Z,17.70
2023-05-03T18:05:06.888Z,17.60
2023-05-03T18:07:35.457Z,17.60
2023-05-03T18:10:05.005Z,17.50
2023-05-03T18:12:33.872Z,17.50
2023-05-03T18:15:02.577Z,17.40
2023-05-03T18:17:33.301Z,17.30
2023-05-03T18:20:02.583Z,17.30
2023-05-03T18:22:32.790Z,17.20
2023-05-03T18:25:02.336Z,17.10
2023-05-03T18:27:30.985Z,17.00
2023-05-03T18:29:59.506Z,16.90
2023-05-03T18:32:28.161Z,16.80
2023-05-03T18:34:56.811Z,16.60
2023-05-03T18:37:25.568Z,16.50
2023-05-03T18:39:55.495Z,16.40
2023-05-03T18:42:24.444Z,16.30
2023-05-03T18:44:52.991Z,16.20
2023-05-03T18:47:21.963Z,16.10
2023-05-03T18:49:52.575Z,15.90
2023-05-03T18:52:21.519Z,15.90
2023-05-03T18:54:50.592Z,15.70
2023-05-03T18:57:20.536Z,15.60
2023-05-03T18:59:59.840Z,15.50
2023-05-03T19:02:31.034Z,15.40
2023-05-03T19:05:00.882Z,15.30
2023-05-03T19:07:29.882Z,15.20
2023-05-03T19:09:58.778Z,15.10
2023-05-03T19:12:28.719Z,15.10
2023-05-03T19:14:57.282Z,15.00
2023-05-03T19:17:25.918Z,14.90
2023-05-03T19:19:54.453Z,14.80
2023-05-03T19:22:23.255Z,14.70
2023-05-03T19:24:51.886Z,14.60
2023-05-03T19:27:20.829Z,14.50
2023-05-03T19:29:51.309Z,14.50
2023-05-03T19:32:19.837Z,14.40
2023-05-03T19:34:48.365Z,14.30
2023-05-03T19:37:16.945Z,14.20
2023-05-03T19:39:45.723Z,14.20
2023-05-03T19:42:14.350Z,14.10
2023-05-03T19:44:42.841Z,14.00
2023-05-03T19:47:12.726Z,13.90
2023-05-03T19:49:41.415Z,13.90
2023-05-03T19:52:10.083Z,13.80
2023-05-03T19:54:38.639Z,13.80
2023-05-03T19:57:07.850Z,13.70
2023-05-03T19:59:36.749Z,13.60
2023-05-03T20:02:05.338Z,13.60
2023-05-03T20:04:35.401Z,13.50
2023-05-03T20:07:03.932Z,13.40
2023-05-03T20:09:32.586Z,13.40
2023-05-03T20:12:02.079Z,13.30
2023-05-03T20:14:30.723Z,13.20
2023-05-03T20:16:59.388Z,13.20
2023-05-03T20:19:27.974Z,13.10
2023-05-03T20:21:58.276Z,13.00
2023-05-03T20:24:27.599Z,13.00
2023-05-03T20:26:56.098Z,13.00
2023-05-03T20:29:24.661Z,12.90
2023-05-03T20:31:53.921Z,12.90
2023-05-03T20:34:22.600Z,12.80
2023-05-03T20:36:52.675Z,12.80
2023-05-03T20:39:22.606Z,12.70
2023-05-03T20:41:51.187Z,12.70
2023-05-03T20:44:19.719Z,12.60
2023-05-03T20:46:48.566Z,12.60
2023-05-03T20:49:17.140Z,12.50
2023-05-03T20:51:45.760Z,12.40
2023-05-03T20:54:14.466Z,12.40
2023-05-03T20:56:44.406Z,12.30
2023-05-03T20:59:12.891Z,12.20
2023-05-03T21:01:41.616Z,12.20
2023-05-03T21:04:10.303Z,12.10
2023-05-03T21:06:38.850Z,12.00
2023-05-03T21:09:07.522Z,12.00
2023-05-03T21:11:36.030Z,11.90
2023-05-03T21:14:06.531Z,11.90
2023-05-03T21:16:35.622Z,11.80
2023-05-03T21:19:04.730Z,11.70
2023-05-03T21:21:33.397Z,11.60
2023-05-03T21:24:02.285Z,11.60
2023-05-03T21:26:31.228Z,11.50
2023-05-03T21:29:00.226Z,11.40
2023-05-03T21:31:30.258Z,11.30
2023-05-03T21:33:59.107Z,11.30
2023-05-03T21:36:27.785Z,11.20
2023-05-03T21:38:56.381Z,11.10
2023-05-03T21:41:24.969Z,11.10
2023-05-03T21:43:56.635Z,11.00
2023-05-03T21:46:25.194Z,10.90
2023-05-03T21:48:55.158Z,10.90
2023-05-03T21:51:24.963Z,10.80
2023-05-03T21:53:53.646Z,10.80
2023-05-03T21:56:22.368Z,10.70
2023-05-03T21:58:50.925Z,10.60
2023-05-03T22:01:21.693Z,10.60
2023-05-03T22:03:50.473Z,10.60
2023-05-03T22:06:20.536Z,10.50
2023-05-03T22:08:49.256Z,10.40
2023-05-03T22:11:17.852Z,10.40
2023-05-03T22:14:03.144Z,10.30
2023-05-03T22:16:35.401Z,10.30
2023-05-03T22:19:04.227Z,10.20
2023-05-03T22:21:34.138Z,10.20
2023-05-03T22:24:02.909Z,10.10
2023-05-03T22:26:32.100Z,10.10
2023-05-03T22:29:01.068Z,10.10
2023-05-03T22:31:30.480Z,10.00
2023-05-03T22:33:59.192Z,10.00
2023-05-03T22:36:27.811Z,10.00
2023-05-03T22:39:00.774Z,10.00
2023-05-03T22:41:29.800Z,9.90
2023-05-03T22:43:58.448Z,9.90
2023-05-03T22:46:27.037Z,9.90
2023-05-03T22:48:55.578Z,9.90
2023-05-03T22:51:24.916Z,9.80
2023-05-03T22:53:53.493Z,9.80
2023-05-03T22:56:23.350Z,9.80
2023-05-03T22:58:51.971Z,9.70
2023-05-03T23:01:20.686Z,9.70
2023-05-03T23:03:49.410Z,9.60
2023-05-03T23:06:18.061Z,9.60
2023-05-03T23:08:46.578Z,9.50
2023-05-03T23:11:15.103Z,9.50
2023-05-03T23:13:45.218Z,9.40
2023-05-03T23:16:13.817Z,9.40
2023-05-03T23:18:42.809Z,9.40
2023-05-03T23:21:11.365Z,9.30
2023-05-03T23:23:40.267Z,9.20
2023-05-03T23:26:09.268Z,9.20
2023-05-03T23:28:38.434Z,9.20
2023-05-03T23:31:08.906Z,9.20
2023-05-03T23:33:37.979Z,9.10
2023-05-03T23:36:07.114Z,9.10
2023-05-03T23:38:35.739Z,9.00
2023-05-03T23:41:04.286Z,9.00
2023-05-03T23:43:32.966Z,9.10
2023-05-03T23:46:01.548Z,8.90
2023-05-03T23:48:31.596Z,8.90
2023-05-03T23:51:00.238Z,8.90
2023-05-03T23:53:28.836Z,8.80
2023-05-03T23:55:57.395Z,8.80
2023-05-03T23:58:25.958Z,8.80
